Time;durP1;ratioP1;P1;durP2;ratioP2;P2;SDS_P1;SDS_P2;PMS_P1;PMS_P2;Temp;Humidity;BMP_temperature;BMP_pressure;BME280_temperature;BME280_humidity;BME280_pressure;Samples;Min_cycle;Max_cycle;Signal;HPM_P1;HPM_P2
2022/03/29 00:00:59;;;;;;;7.93;5.43;;;6.40;99.90;;;;;;5012284;28;20231;-67
2022/03/29 00:03:25;;;;;;;7.40;5.47;;;6.30;99.90;;;;;;5012260;28;20259;-67
2022/03/29 00:05:51;;;;;;;4.53;4.13;;;6.30;99.90;;;;;;5012371;28;20388;-69
2022/03/29 00:08:18;;;;;;;9.17;4.57;;;6.30;99.90;;;;;;5010962;28;20957;-69
2022/03/29 00:10:44;;;;;;;6.80;4.60;;;6.30;99.90;;;;;;5011828;28;20419;-68
2022/03/29 00:13:10;;;;;;;6.00;5.00;;;6.20;99.90;;;;;;5012010;28;20406;-68
2022/03/29 00:15:35;;;;;;;5.63;5.13;;;6.20;99.90;;;;;;5011586;28;20761;-68
2022/03/29 00:18:01;;;;;;;7.07;5.00;;;6.20;99.90;;;;;;5011961;28;20266;-67
2022/03/29 00:20:26;;;;;;;10.80;5.50;;;6.10;99.90;;;;;;5011994;28;20227;-66
2022/03/29 00:22:52;;;;;;;7.80;5.70;;;6.10;99.90;;;;;;5011646;28;20172;-67
2022/03/29 00:25:18;;;;;;;10.73;5.73;;;6.20;99.90;;;;;;5015107;28;20740;-67
2022/03/29 00:27:43;;;;;;;9.03;5.30;;;6.20;99.90;;;;;;5015830;28;20196;-67
2022/03/29 00:30:15;;;;;;;8.17;5.00;;;6.20;99.90;;;;;;5015773;28;20169;-66
2022/03/29 00:32:41;;;;;;;9.40;5.50;;;6.30;99.90;;;;;;5015367;28;20652;-67
2022/03/29 00:35:08;;;;;;;8.00;4.87;;;6.30;99.90;;;;;;5015310;28;20431;-67
2022/03/29 00:37:34;;;;;;;9.17;5.60;;;6.30;99.90;;;;;;5015751;28;20783;-67
2022/03/29 00:40:00;;;;;;;8.90;5.10;;;6.30;99.90;;;;;;5015409;28;20411;-67
2022/03/29 00:42:25;;;;;;;7.63;5.17;;;6.20;99.90;;;;;;5015347;28;20165;-67
2022/03/29 00:44:51;;;;;;;12.70;6.60;;;6.30;99.90;;;;;;5015373;28;20267;-67
2022/03/29 00:47:16;;;;;;;8.93;5.50;;;6.30;99.90;;;;;;5015276;28;20179;-69
2022/03/29 00:49:42;;;;;;;6.03;5.43;;;6.30;99.90;;;;;;5015596;28;20637;-67
2022/03/29 00:52:08;;;;;;;10.20;6.53;;;6.40;99.90;;;;;;5015220;28;20172;-66
2022/03/29 00:54:35;;;;;;;10.33;5.30;;;6.40;99.90;;;;;;5015093;28;20180;-67
2022/03/29 00:57:03;;;;;;;12.43;5.27;;;6.40;99.90;;;;;;5013899;28;20411;-67
2022/03/29 00:59:29;;;;;;;9.90;6.00;;;6.40;99.90;;;;;;5015025;28;20411;-67
2022/03/29 01:02:00;;;;;;;11.27;5.27;;;6.40;99.90;;;;;;5015023;28;20411;-67
2022/03/29 01:04:26;;;;;;;9.17;4.60;;;6.40;99.90;;;;;;5015160;28;20406;-67
2022/03/29 01:06:59;;;;;;;6.87;5.20;;;6.40;99.90;;;;;;5014947;28;20495;-67
2022/03/29 01:09:29;;;;;;;5.20;3.77;;;6.40;99.90;;;;;;5013709;28;20454;-68
2022/03/29 01:11:56;;;;;;;9.70;5.87;;;6.40;99.90;;;;;;5014962;28;20501;-67
2022/03/29 01:14:23;;;;;;;9.27;6.00;;;6.40;99.90;;;;;;5015111;28;20407;-67
2022/03/29 01:19:36;;;;;;;5.60;4.00;;;6.50;99.90;;;;;;5015072;28;20406;-68
2022/03/29 01:22:03;;;;;;;7.93;7.13;;;6.50;99.90;;;;;;5014417;28;20559;-67
2022/03/29 01:24:29;;;;;;;9.17;5.43;;;6.50;99.90;;;;;;5014774;28;20913;-68
2022/03/29 01:27:01;;;;;;;4.90;4.37;;;6.50;99.90;;;;;;5014752;28;20775;-67
2022/03/29 01:29:29;;;;;;;7.43;4.70;;;6.50;99.90;;;;;;5014519;28;20508;-67
2022/03/29 01:31:56;;;;;;;9.27;5.23;;;6.50;99.90;;;;;;5013686;28;20972;-67
2022/03/29 01:34:22;;;;;;;6.30;4.47;;;6.60;99.90;;;;;;5014255;28;20486;-67
2022/03/29 01:36:48;;;;;;;6.37;4.10;;;6.50;99.90;;;;;;5014465;28;20838;-67
2022/03/29 01:39:14;;;;;;;8.70;5.00;;;6.50;99.90;;;;;;5014237;28;20184;-67
2022/03/29 01:41:39;;;;;;;5.67;4.57;;;6.60;99.90;;;;;;5014107;28;20914;-67
2022/03/29 01:44:10;;;;;;;10.57;6.30;;;6.60;99.90;;;;;;5014266;28;20615;-67
2022/03/29 01:46:36;;;;;;;7.43;4.50;;;6.60;99.90;;;;;;5014066;28;20697;-67
2022/03/29 01:49:02;;;;;;;8.10;4.80;;;6.60;99.90;;;;;;5014175;28;20454;-67
2022/03/29 01:51:28;;;;;;;4.73;4.00;;;6.60;99.90;;;;;;5014167;28;20168;-67
2022/03/29 01:53:59;;;;;;;7.93;5.37;;;6.50;99.90;;;;;;5014196;28;20916;-68
2022/03/29 01:56:28;;;;;;;9.60;6.00;;;6.60;99.90;;;;;;5013808;28;20423;-67
2022/03/29 01:58:54;;;;;;;9.87;5.77;;;6.60;99.90;;;;;;5014061;28;20449;-66
2022/03/29 02:01:19;;;;;;;10.50;4.90;;;6.70;99.90;;;;;;5014064;28;20407;-66
2022/03/29 02:03:45;;;;;;;9.77;4.73;;;6.60;99.90;;;;;;5014141;28;20639;-67
2022/03/29 02:06:10;;;;;;;7.50;4.70;;;6.60;99.90;;;;;;5013849;28;20246;-67
2022/03/29 02:08:36;;;;;;;10.13;5.67;;;6.60;99.90;;;;;;5014014;28;20211;-67
2022/03/29 02:11:01;;;;;;;5.43;4.10;;;6.60;99.90;;;;;;5014170;28;20211;-67
2022/03/29 02:13:27;;;;;;;8.80;5.23;;;6.60;99.90;;;;;;5014144;28;20184;-67
2022/03/29 02:15:52;;;;;;;7.30;5.07;;;6.60;99.90;;;;;;5014060;28;20689;-67
2022/03/29 02:18:18;;;;;;;7.90;5.30;;;6.60;99.90;;;;;;5013964;28;20176;-67
2022/03/29 02:20:43;;;;;;;9.13;5.30;;;6.60;99.90;;;;;;5014151;28;20176;-67
2022/03/29 02:23:12;;;;;;;12.30;7.23;;;6.50;99.90;;;;;;5014171;28;20180;-68
2022/03/29 02:25:38;;;;;;;8.50;5.40;;;6.60;99.90;;;;;;5030448;22;20220;-69
2022/03/29 02:28:03;;;;;;;9.47;5.03;;;6.60;99.90;;;;;;4993978;28;20889;-68
2022/03/29 02:30:29;;;;;;;8.00;6.30;;;6.60;99.90;;;;;;4993976;28;20169;-68
2022/03/29 02:32:55;;;;;;;12.10;5.90;;;6.50;99.90;;;;;;4993931;28;20618;-68
2022/03/29 02:35:20;;;;;;;9.87;5.93;;;6.50;99.90;;;;;;4993539;28;20188;-67
2022/03/29 02:37:46;;;;;;;8.97;6.10;;;6.50;99.90;;;;;;4993811;28;20204;-68
2022/03/29 02:40:13;;;;;;;8.67;5.90;;;6.50;99.90;;;;;;4993893;28;20173;-67
2022/03/29 02:42:47;;;;;;;8.10;6.43;;;6.50;99.90;;;;;;4993613;28;20947;-70
2022/03/29 02:45:18;;;;;;;9.40;5.83;;;6.50;99.90;;;;;;4993508;28;20408;-68
2022/03/29 02:47:49;;;;;;;13.37;7.90;;;6.50;99.90;;;;;;4993014;28;20950;-68
2022/03/29 02:50:16;;;;;;;7.07;5.17;;;6.60;99.90;;;;;;4993672;28;20467;-67
2022/03/29 02:52:47;;;;;;;9.47;5.27;;;6.50;99.90;;;;;;4993910;28;20454;-67
2022/03/29 02:55:14;;;;;;;10.27;5.80;;;6.40;99.90;;;;;;4994042;28;20503;-68
2022/03/29 02:57:39;;;;;;;6.70;5.57;;;6.50;99.90;;;;;;4994882;28;20475;-68
2022/03/29 03:00:06;;;;;;;8.93;5.50;;;6.50;99.90;;;;;;4995962;28;20431;-68
2022/03/29 03:02:34;;;;;;;8.20;6.20;;;6.60;99.90;;;;;;4995213;28;20165;-69
2022/03/29 03:05:01;;;;;;;6.70;4.70;;;6.70;99.90;;;;;;4993175;28;20408;-69
2022/03/29 03:07:27;;;;;;;9.93;6.17;;;6.60;99.90;;;;;;4993267;28;20412;-69
2022/03/29 03:09:53;;;;;;;13.40;7.17;;;6.60;99.90;;;;;;4993581;28;20408;-67
2022/03/29 03:12:19;;;;;;;10.47;5.70;;;6.50;99.90;;;;;;4993071;28;20916;-68
2022/03/29 03:14:44;;;;;;;10.77;6.60;;;6.60;99.90;;;;;;4993180;28;20416;-67
2022/03/29 03:17:09;;;;;;;14.30;6.80;;;6.70;99.90;;;;;;4993044;28;20215;-67
2022/03/29 03:19:35;;;;;;;7.73;6.70;;;6.60;99.90;;;;;;4993412;28;20197;-67
2022/03/29 03:22:00;;;;;;;18.77;5.80;;;6.60;99.90;;;;;;4993045;28;20192;-67
2022/03/29 03:24:26;;;;;;;11.37;6.80;;;6.60;99.90;;;;;;4993118;28;20264;-67
2022/03/29 03:26:51;;;;;;;14.30;6.03;;;6.60;99.90;;;;;;4992880;28;20644;-68
2022/03/29 03:29:17;;;;;;;7.00;6.10;;;6.60;99.90;;;;;;4992872;28;20288;-68
2022/03/29 03:31:42;;;;;;;5.37;4.40;;;6.60;99.90;;;;;;4992838;28;20500;-68
2022/03/29 03:34:08;;;;;;;13.03;5.10;;;6.50;99.90;;;;;;4992751;28;20256;-68
2022/03/29 03:36:33;;;;;;;11.07;5.80;;;6.60;99.90;;;;;;4992578;28;20189;-70
2022/03/29 03:38:59;;;;;;;9.63;5.87;;;6.50;99.90;;;;;;4992889;28;20695;-69
2022/03/29 03:41:24;;;;;;;9.30;5.30;;;6.60;99.90;;;;;;4992955;28;20172;-69
2022/03/29 03:43:50;;;;;;;9.80;7.60;;;6.50;99.90;;;;;;4992589;28;20180;-68
2022/03/29 03:46:15;;;;;;;12.20;7.10;;;6.50;99.90;;;;;;4992586;28;20218;-68
2022/03/29 03:48:40;;;;;;;9.37;5.70;;;6.50;99.90;;;;;;4992671;28;20856;-68
2022/03/29 03:51:06;;;;;;;10.60;5.33;;;6.60;99.90;;;;;;4992804;28;20173;-68
2022/03/29 03:53:32;;;;;;;11.23;7.17;;;6.50;99.90;;;;;;4992944;28;20180;-68
2022/03/29 03:55:58;;;;;;;8.53;6.30;;;6.50;99.90;;;;;;4992495;28;20185;-68
2022/03/29 03:58:23;;;;;;;7.50;5.70;;;6.50;99.90;;;;;;4991926;28;20172;-68
2022/03/29 04:00:49;;;;;;;7.97;6.50;;;6.50;99.90;;;;;;4991805;28;20651;-68
2022/03/29 04:03:14;;;;;;;16.50;6.87;;;6.50;99.90;;;;;;4992694;28;20240;-68
2022/03/29 04:05:40;;;;;;;12.27;7.10;;;6.50;99.90;;;;;;4992334;28;20193;-68
2022/03/29 04:08:06;;;;;;;9.10;6.27;;;6.50;99.90;;;;;;4992353;28;20189;-68
2022/03/29 04:10:33;;;;;;;13.57;7.00;;;6.50;99.90;;;;;;4991150;28;20169;-68
2022/03/29 04:13:00;;;;;;;11.37;8.17;;;6.40;99.90;;;;;;4992609;28;20192;-68
2022/03/29 04:15:26;;;;;;;10.67;5.50;;;6.40;99.90;;;;;;4992386;28;20432;-69
2022/03/29 04:17:51;;;;;;;12.60;8.57;;;6.50;99.90;;;;;;4992402;28;20416;-68
2022/03/29 04:20:17;;;;;;;9.63;6.10;;;6.50;99.90;;;;;;4992332;28;20169;-69
2022/03/29 04:22:42;;;;;;;11.37;6.30;;;6.50;99.90;;;;;;4992713;28;20542;-68
2022/03/29 04:25:08;;;;;;;10.30;6.70;;;6.50;99.90;;;;;;4992204;28;20169;-68
2022/03/29 04:27:34;;;;;;;19.00;9.87;;;6.60;99.90;;;;;;4992602;28;20183;-69
2022/03/29 04:29:59;;;;;;;9.20;5.97;;;6.60;99.90;;;;;;4992365;28;20416;-69
2022/03/29 04:32:25;;;;;;;12.00;7.67;;;6.60;99.90;;;;;;4992113;28;20654;-68
2022/03/29 04:34:50;;;;;;;10.30;5.40;;;6.50;99.90;;;;;;4992437;28;20279;-68
2022/03/29 04:37:16;;;;;;;9.90;6.70;;;6.50;99.90;;;;;;4992323;28;20188;-68
2022/03/29 04:39:41;;;;;;;18.77;8.80;;;6.60;99.90;;;;;;4992521;28;20176;-68
2022/03/29 04:42:07;;;;;;;16.00;8.43;;;6.60;99.90;;;;;;4992423;28;20184;-69
2022/03/29 04:44:36;;;;;;;9.07;5.13;;;6.40;99.90;;;;;;4992333;28;20200;-68
2022/03/29 04:47:03;;;;;;;9.63;5.30;;;6.40;99.90;;;;;;4992481;28;20447;-69
2022/03/29 04:49:28;;;;;;;10.97;4.90;;;6.40;99.90;;;;;;4994559;28;20483;-69
2022/03/29 04:51:54;;;;;;;12.10;6.57;;;6.40;99.90;;;;;;4992737;28;20404;-69
2022/03/29 04:54:19;;;;;;;9.53;6.30;;;6.40;99.90;;;;;;4992122;28;20694;-69
2022/03/29 04:56:45;;;;;;;7.57;5.77;;;6.40;99.90;;;;;;4991965;28;20186;-69
2022/03/29 04:59:11;;;;;;;16.17;7.87;;;6.40;99.90;;;;;;4992093;28;20540;-69
2022/03/29 05:01:36;;;;;;;9.80;6.07;;;6.40;99.90;;;;;;4991976;28;20180;-68
2022/03/29 05:04:03;;;;;;;10.20;7.27;;;6.50;99.90;;;;;;4991940;28;20404;-69
2022/03/29 05:06:29;;;;;;;10.00;6.33;;;6.40;99.90;;;;;;4991847;28;20192;-68
2022/03/29 05:08:54;;;;;;;15.07;6.93;;;6.30;99.90;;;;;;4990798;28;20962;-68
2022/03/29 05:11:19;;;;;;;10.90;5.90;;;6.30;99.90;;;;;;4995300;28;20177;-68
2022/03/29 05:13:45;;;;;;;10.90;5.73;;;6.30;99.90;;;;;;4995696;28;20176;-69
2022/03/29 05:16:10;;;;;;;15.77;7.97;;;6.30;99.90;;;;;;4995373;28;20686;-68
2022/03/29 05:18:36;;;;;;;9.43;6.10;;;6.30;99.90;;;;;;4995428;28;20177;-69
2022/03/29 05:21:02;;;;;;;12.00;8.20;;;6.20;99.90;;;;;;4995418;28;20636;-68
2022/03/29 05:23:27;;;;;;;12.87;7.90;;;6.30;99.90;;;;;;4995362;28;20176;-68
2022/03/29 05:25:53;;;;;;;11.60;7.73;;;6.30;99.90;;;;;;4995211;28;20236;-69
2022/03/29 05:28:18;;;;;;;11.53;6.10;;;6.30;99.90;;;;;;4995216;28;20717;-68
2022/03/29 05:30:43;;;;;;;17.23;7.23;;;6.30;99.90;;;;;;4993970;28;20223;-68
2022/03/29 05:33:15;;;;;;;11.97;7.07;;;6.40;99.90;;;;;;4995008;28;20189;-68
2022/03/29 05:35:41;;;;;;;10.63;6.63;;;6.40;99.90;;;;;;4995071;28;20181;-67
2022/03/29 05:38:07;;;;;;;11.77;6.83;;;6.40;99.90;;;;;;4995262;28;20902;-69
2022/03/29 05:40:32;;;;;;;25.30;8.43;;;6.40;99.90;;;;;;4993968;28;20440;-69
2022/03/29 05:42:58;;;;;;;7.40;5.47;;;6.40;99.90;;;;;;4995024;28;20632;-69
2022/03/29 05:45:23;;;;;;;14.37;7.43;;;6.40;99.90;;;;;;4995016;28;20189;-69
2022/03/29 05:50:33;;;;;;;10.40;6.50;;;6.40;99.90;;;;;;4995311;28;20227;-69
2022/03/29 05:53:01;;;;;;;9.37;6.80;;;6.40;99.90;;;;;;4994894;28;20402;-69
2022/03/29 05:55:27;;;;;;;14.67;9.07;;;6.50;99.90;;;;;;4994670;28;20555;-69
2022/03/29 05:57:52;;;;;;;11.50;7.47;;;6.50;99.90;;;;;;4994885;28;20412;-69
2022/03/29 06:00:23;;;;;;;16.77;8.30;;;6.40;99.90;;;;;;4994543;28;20169;-70
2022/03/29 06:02:48;;;;;;;13.10;7.53;;;6.40;99.90;;;;;;4994698;28;20177;-69
2022/03/29 06:05:14;;;;;;;14.10;6.67;;;6.40;99.90;;;;;;4994418;28;20787;-68
2022/03/29 06:07:40;;;;;;;14.83;7.83;;;6.30;99.90;;;;;;4994448;28;20408;-70
2022/03/29 06:10:06;;;;;;;15.53;8.63;;;6.30;99.90;;;;;;4994565;28;20176;-69
2022/03/29 06:12:32;;;;;;;8.47;7.13;;;6.30;99.90;;;;;;4994346;28;20173;-69
2022/03/29 06:15:02;;;;;;;11.87;7.83;;;6.40;99.90;;;;;;4994207;28;20404;-69
2022/03/29 06:17:27;;;;;;;14.50;10.93;;;6.30;99.90;;;;;;4994683;28;20397;-68
2022/03/29 06:19:54;;;;;;;11.53;7.60;;;6.20;99.90;;;;;;4992264;28;20431;-71
2022/03/29 06:22:20;;;;;;;15.10;6.50;;;6.20;99.90;;;;;;4993384;28;20184;-68
2022/03/29 06:24:46;;;;;;;15.63;7.03;;;6.30;99.90;;;;;;4994420;28;20761;-71
2022/03/29 06:27:11;;;;;;;24.13;8.40;;;6.30;99.90;;;;;;4994480;28;20626;-69
2022/03/29 06:29:37;;;;;;;17.50;7.77;;;6.30;99.90;;;;;;4994320;28;20196;-68
2022/03/29 06:32:02;;;;;;;18.70;10.43;;;6.40;99.90;;;;;;4994465;28;20172;-68
2022/03/29 06:34:29;;;;;;;17.20;7.70;;;6.40;99.90;;;;;;4994405;28;20172;-69
2022/03/29 06:36:55;;;;;;;9.47;7.80;;;6.50;99.90;;;;;;4995865;28;20189;-69
2022/03/29 06:39:20;;;;;;;14.40;7.67;;;6.50;99.90;;;;;;4994874;28;20397;-69
2022/03/29 06:41:46;;;;;;;11.70;7.73;;;6.50;99.90;;;;;;4994045;28;20530;-69
2022/03/29 06:44:13;;;;;;;17.03;8.20;;;6.70;99.90;;;;;;4993732;28;20176;-69
2022/03/29 06:46:39;;;;;;;12.33;7.37;;;6.90;99.90;;;;;;4994686;28;20189;-69
2022/03/29 06:49:06;;;;;;;18.53;8.53;;;6.80;99.90;;;;;;4994141;28;20608;-68
2022/03/29 06:51:35;;;;;;;11.77;8.23;;;6.90;99.90;;;;;;4994425;28;20400;-69
2022/03/29 06:54:01;;;;;;;15.30;7.53;;;6.90;99.90;;;;;;4993710;28;20428;-70
2022/03/29 06:56:28;;;;;;;15.13;8.63;;;7.10;99.90;;;;;;4993654;28;20467;-69
2022/03/29 06:58:54;;;;;;;21.03;9.30;;;7.40;99.90;;;;;;4993469;28;20409;-69
2022/03/29 07:01:19;;;;;;;9.90;6.77;;;7.90;99.90;;;;;;4993846;28;20422;-68
2022/03/29 07:03:45;;;;;;;13.20;7.40;;;7.80;99.90;;;;;;4993377;28;20434;-68
2022/03/29 07:06:10;;;;;;;12.33;7.80;;;7.70;99.90;;;;;;4993311;28;20189;-69
2022/03/29 07:11:15;;;;;;;7.83;5.77;;;7.90;99.90;;;;;;4993468;28;20198;-69
2022/03/29 07:11:24;;;;;;;9.53;6.07;;;8.10;99.90;;;;;;4992956;28;20153;-69
2022/03/29 07:13:50;;;;;;;13.07;7.40;;;8.30;99.90;;;;;;4993431;28;20781;-69
2022/03/29 07:16:15;;;;;;;11.93;6.50;;;8.10;99.90;;;;;;4993105;28;20437;-69
2022/03/29 07:18:41;;;;;;;13.83;5.97;;;7.80;99.90;;;;;;4993127;28;20167;-68
2022/03/29 07:21:07;;;;;;;9.77;7.47;;;7.90;99.90;;;;;;4992940;28;20201;-70
2022/03/29 07:23:33;;;;;;;10.53;6.03;;;8.00;99.90;;;;;;4993124;28;20502;-68
2022/03/29 07:25:58;;;;;;;9.00;6.13;;;8.40;99.90;;;;;;4992755;28;20222;-68
2022/03/29 07:28:24;;;;;;;9.87;6.17;;;8.10;99.90;;;;;;4993026;28;20201;-69
2022/03/29 07:30:51;;;;;;;13.93;5.40;;;8.40;99.90;;;;;;4993742;28;20169;-69
2022/03/29 07:33:17;;;;;;;11.83;5.43;;;8.50;99.90;;;;;;4992906;28;20220;-69
2022/03/29 07:35:44;;;;;;;7.37;4.53;;;9.00;99.90;;;;;;4993060;28;20476;-69
2022/03/29 07:38:10;;;;;;;7.00;4.53;;;8.90;99.90;;;;;;4992823;28;20758;-69
2022/03/29 07:40:37;;;;;;;7.73;4.70;;;8.50;99.90;;;;;;4992755;28;20918;-69
2022/03/29 07:43:04;;;;;;;7.50;4.53;;;8.50;99.90;;;;;;4992592;28;20455;-69
2022/03/29 07:45:31;;;;;;;8.47;5.13;;;9.70;99.90;;;;;;4992522;28;20481;-69
2022/03/29 07:47:57;;;;;;;6.83;4.07;;;10.50;99.90;;;;;;4991173;28;20448;-69
2022/03/29 07:50:24;;;;;;;9.93;5.87;;;9.90;99.90;;;;;;4993075;28;20401;-70
2022/03/29 07:52:50;;;;;;;10.20;5.90;;;9.30;99.90;;;;;;4993874;28;20400;-69
2022/03/29 07:55:16;;;;;;;8.67;5.07;;;8.80;99.90;;;;;;4993730;28;20404;-69
2022/03/29 07:57:43;;;;;;;9.77;6.27;;;10.00;99.90;;;;;;4993629;28;20176;-69
2022/03/29 08:02:55;;;;;;;8.57;5.47;;;9.80;99.90;;;;;;4992675;28;20455;-69
2022/03/29 08:05:22;;;;;;;5.03;3.30;;;9.80;99.90;;;;;;4992194;28;20428;-69
2022/03/29 08:07:48;;;;;;;4.73;4.20;;;9.30;99.90;;;;;;4992555;28;20169;-69
2022/03/29 08:10:13;;;;;;;9.50;4.53;;;9.10;99.90;;;;;;4992352;28;20463;-69
2022/03/29 08:12:40;;;;;;;7.33;4.50;;;9.20;99.90;;;;;;4992185;28;20217;-68
2022/03/29 08:15:08;;;;;;;8.00;3.70;;;9.80;99.90;;;;;;4992092;28;20169;-68
2022/03/29 08:17:34;;;;;;;7.97;3.97;;;10.40;99.90;;;;;;4992116;28;20419;-69
2022/03/29 08:19:59;;;;;;;7.03;4.37;;;10.20;99.90;;;;;;4992172;28;20777;-69
2022/03/29 08:22:25;;;;;;;7.17;3.73;;;11.10;99.90;;;;;;4992540;28;20169;-69
2022/03/29 08:24:51;;;;;;;7.63;4.30;;;11.20;99.90;;;;;;4996332;28;20231;-69
2022/03/29 08:27:17;;;;;;;8.83;4.87;;;11.60;99.90;;;;;;4992778;28;20201;-69
2022/03/29 08:29:43;;;;;;;5.63;3.97;;;11.20;99.90;;;;;;4992197;28;20447;-68
2022/03/29 08:32:08;;;;;;;6.37;4.17;;;11.00;99.90;;;;;;4992269;28;20185;-68
2022/03/29 08:34:34;;;;;;;5.37;3.73;;;10.30;99.90;;;;;;4991544;28;20914;-68
2022/03/29 08:36:59;;;;;;;7.90;4.40;;;10.20;99.90;;;;;;4992108;28;20193;-68
2022/03/29 08:39:25;;;;;;;6.60;4.37;;;10.50;99.90;;;;;;4992255;28;20192;-69
2022/03/29 08:42:04;;;;;;;14.33;7.83;;;10.50;99.90;;;;;;4992010;28;20181;-68
2022/03/29 08:44:32;;;;;;;7.30;4.67;;;11.30;99.90;;;;;;4992836;28;20236;-68
2022/03/29 08:46:57;;;;;;;9.63;4.90;;;11.20;99.90;;;;;;4995701;28;20831;-68
2022/03/29 08:49:23;;;;;;;7.77;5.87;;;11.90;99.90;;;;;;4995782;28;20504;-68
2022/03/29 08:51:49;;;;;;;5.90;4.53;;;12.30;99.90;;;;;;4995790;28;20635;-68
2022/03/29 08:54:15;;;;;;;5.77;4.20;;;12.20;99.90;;;;;;4995881;28;20613;-69
2022/03/29 08:56:41;;;;;;;5.80;4.53;;;12.40;99.90;;;;;;4995609;28;20526;-70
2022/03/29 08:59:07;;;;;;;9.10;5.00;;;12.70;99.90;;;;;;4995811;28;20181;-68
2022/03/29 09:01:32;;;;;;;8.80;4.47;;;12.60;99.10;;;;;;4995973;28;20226;-69
2022/03/29 09:04:04;;;;;;;4.80;4.03;;;12.20;99.20;;;;;;4994893;28;20192;-70
2022/03/29 09:06:30;;;;;;;8.10;5.20;;;12.10;97.40;;;;;;4987934;28;20261;-68
2022/03/29 09:08:56;;;;;;;9.40;5.50;;;12.40;99.60;;;;;;4995368;28;20464;-69
2022/03/29 09:11:21;;;;;;;7.07;4.83;;;12.50;98.40;;;;;;4995633;28;20673;-69
2022/03/29 09:14:01;;;;;;;6.27;4.53;;;13.00;97.30;;;;;;4995433;28;20408;-69
2022/03/29 09:16:31;;;;;;;9.77;5.27;;;13.10;98.20;;;;;;4995475;28;20277;-70
2022/03/29 09:18:57;;;;;;;9.00;6.03;;;12.00;97.90;;;;;;4995544;28;20412;-69
2022/03/29 09:21:24;;;;;;;6.83;4.80;;;12.80;98.20;;;;;;4995530;28;20842;-68
2022/03/29 09:24:12;;;;;;;7.40;5.97;;;12.60;98.30;;;;;;4995566;28;20457;-69
2022/03/29 09:26:43;;;;;;;10.10;6.63;;;12.70;97.60;;;;;;4994868;28;20528;-69
2022/03/29 09:29:27;;;;;;;7.20;5.10;;;12.70;97.40;;;;;;4995279;28;20455;-70
2022/03/29 09:32:12;;;;;;;9.73;5.60;;;11.80;98.20;;;;;;4995068;28;20823;-72
2022/03/29 09:34:38;;;;;;;7.83;5.50;;;12.20;98.30;;;;;;4994028;28;20469;-69
2022/03/29 09:37:04;;;;;;;8.60;4.77;;;12.00;99.40;;;;;;4994870;28;20441;-69
2022/03/29 09:39:56;;;;;;;9.10;5.97;;;12.70;96.60;;;;;;4995094;28;20517;-70
2022/03/29 09:42:23;;;;;;;8.17;5.67;;;11.50;97.20;;;;;;4992049;28;20455;-69
2022/03/29 09:44:51;;;;;;;12.33;5.70;;;11.10;98.00;;;;;;4995141;28;20405;-69
2022/03/29 09:47:22;;;;;;;6.53;5.30;;;10.80;98.60;;;;;;4994700;28;20479;-69
2022/03/29 09:49:59;;;;;;;7.17;6.10;;;11.10;98.70;;;;;;4995195;28;20470;-70
2022/03/29 09:52:36;;;;;;;11.80;7.80;;;11.70;98.30;;;;;;4995068;28;20408;-70
2022/03/29 09:55:15;;;;;;;7.17;5.13;;;11.90;98.40;;;;;;4994679;28;20408;-69
2022/03/29 09:57:51;;;;;;;7.70;5.53;;;11.70;97.50;;;;;;4994847;28;20443;-69
2022/03/29 10:00:24;;;;;;;11.13;5.53;;;11.40;98.00;;;;;;4994982;28;20851;-68
2022/03/29 10:02:51;;;;;;;8.30;5.80;;;12.10;98.10;;;;;;4994945;28;20843;-70
2022/03/29 10:05:18;;;;;;;12.90;6.07;;;12.10;97.80;;;;;;4994467;28;20942;-69
2022/03/29 10:10:47;;;;;;;9.03;4.90;;;12.40;97.80;;;;;;4995312;28;20438;-70
2022/03/29 10:13:15;;;;;;;13.17;5.33;;;11.10;97.20;;;;;;4997737;28;20839;-70
2022/03/29 10:15:41;;;;;;;8.20;5.93;;;11.30;97.70;;;;;;4994966;28;20428;-69
2022/03/29 10:18:07;;;;;;;6.60;5.27;;;11.10;97.50;;;;;;4993507;28;20412;-70
2022/03/29 10:20:36;;;;;;;12.10;7.60;;;11.20;96.40;;;;;;4994360;28;20768;-69
2022/03/29 10:23:02;;;;;;;7.00;4.47;;;11.80;96.50;;;;;;4994109;28;20404;-68
2022/03/29 10:25:28;;;;;;;7.33;4.50;;;11.40;95.30;;;;;;4993890;28;20970;-69
2022/03/29 10:27:58;;;;;;;10.47;5.20;;;11.40;95.50;;;;;;4994093;28;20411;-67
2022/03/29 10:30:35;;;;;;;9.20;5.23;;;12.00;95.10;;;;;;4994042;28;20230;-68
2022/03/29 10:33:25;;;;;;;11.03;6.03;;;11.90;95.00;;;;;;4993979;28;20488;-68
2022/03/29 10:36:02;;;;;;;9.03;5.50;;;11.50;94.70;;;;;;4993800;28;20412;-69
2022/03/29 10:38:42;;;;;;;3.13;2.83;;;11.60;92.50;;;;;;4994060;28;20408;-68
2022/03/29 10:41:26;;;;;;;10.77;5.27;;;11.20;91.90;;;;;;4994144;28;20543;-69
2022/03/29 10:43:54;;;;;;;9.13;4.50;;;11.50;95.00;;;;;;4994077;28;20432;-69
2022/03/29 10:46:24;;;;;;;5.30;3.50;;;11.20;92.70;;;;;;4994194;28;20424;-69
2022/03/29 10:49:23;;;;;;;6.63;4.37;;;11.50;93.60;;;;;;4993812;28;20993;-67
2022/03/29 10:51:50;;;;;;;10.17;5.40;;;12.10;93.40;;;;;;4994169;28;20581;-70
2022/03/29 10:54:30;;;;;;;5.10;4.20;;;12.10;94.80;;;;;;4994087;28;20977;-69
2022/03/29 10:57:01;;;;;;;8.03;4.50;;;12.50;93.90;;;;;;4993777;28;20954;-69
2022/03/29 10:59:29;;;;;;;8.17;5.97;;;12.00;93.40;;;;;;4994017;28;20459;-69
2022/03/29 11:02:17;;;;;;;6.03;4.30;;;11.90;94.60;;;;;;4994165;28;20412;-70
2022/03/29 11:05:05;;;;;;;8.30;5.33;;;11.90;94.30;;;;;;4994096;28;20475;-69
2022/03/29 11:07:32;;;;;;;7.20;5.67;;;12.60;95.60;;;;;;4994119;28;20407;-69
2022/03/29 11:10:15;;;;;;;7.23;4.43;;;12.60;92.90;;;;;;4993858;28;20509;-69
2022/03/29 11:12:56;;;;;;;5.80;4.30;;;12.20;93.40;;;;;;4994392;28;20408;-69
2022/03/29 11:15:24;;;;;;;4.73;3.80;;;12.10;91.30;;;;;;4993765;28;20477;-69
2022/03/29 11:17:57;;;;;;;7.83;4.67;;;11.80;92.20;;;;;;4994056;28;20414;-68
2022/03/29 11:20:39;;;;;;;4.80;3.97;;;12.30;92.80;;;;;;4993534;28;20822;-68
2022/03/29 11:23:06;;;;;;;5.90;4.10;;;12.40;90.90;;;;;;4993186;28;20438;-68
2022/03/29 11:25:42;;;;;;;5.70;3.40;;;12.60;90.40;;;;;;4993257;28;20931;-69
2022/03/29 11:28:14;;;;;;;6.20;3.60;;;12.40;86.60;;;;;;4992940;28;20489;-69
2022/03/29 11:30:40;;;;;;;6.57;3.53;;;12.50;85.90;;;;;;4993152;28;20415;-67
2022/03/29 11:33:07;;;;;;;6.03;3.40;;;12.40;85.10;;;;;;4992942;28;20401;-69
2022/03/29 11:35:34;;;;;;;6.03;3.97;;;12.60;87.70;;;;;;4993705;28;20568;-69
2022/03/29 11:38:11;;;;;;;7.93;3.30;;;12.00;85.50;;;;;;4993330;28;20416;-69
2022/03/29 11:40:37;;;;;;;3.83;3.43;;;12.10;87.70;;;;;;4993906;28;20450;-70
2022/03/29 11:43:05;;;;;;;4.50;2.57;;;13.80;87.40;;;;;;4993172;28;20455;-69
2022/03/29 11:45:39;;;;;;;3.43;3.03;;;12.90;76.00;;;;;;4993586;28;20451;-70
2022/03/29 11:48:11;;;;;;;6.50;3.73;;;12.10;77.40;;;;;;4993724;28;21051;-69
2022/03/29 11:50:38;;;;;;;2.70;2.50;;;13.10;83.70;;;;;;4993355;28;20444;-69
2022/03/29 11:53:19;;;;;;;4.23;2.23;;;12.90;77.80;;;;;;4993069;28;20957;-69
2022/03/29 11:56:14;;;;;;;5.53;2.27;;;12.70;77.90;;;;;;4993138;28;20965;-69
2022/03/29 11:58:48;;;;;;;3.03;1.60;;;12.50;74.20;;;;;;4992865;28;20404;-68
2022/03/29 12:01:16;;;;;;;2.50;1.70;;;12.10;72.20;;;;;;4993549;28;20495;-69
2022/03/29 12:03:47;;;;;;;2.80;2.20;;;12.10;73.90;;;;;;4992999;28;20400;-69
2022/03/29 12:06:18;;;;;;;4.60;2.07;;;12.50;74.50;;;;;;4992452;28;20428;-69
2022/03/29 12:08:51;;;;;;;2.20;2.00;;;13.10;75.70;;;;;;4992508;28;20480;-69
2022/03/29 12:11:29;;;;;;;3.73;2.40;;;12.30;72.40;;;;;;4992771;28;20432;-69
2022/03/29 12:14:04;;;;;;;5.77;2.60;;;12.90;75.90;;;;;;4993437;28;21002;-69
2022/03/29 12:16:31;;;;;;;3.67;2.23;;;12.60;72.10;;;;;;4993028;28;20423;-70
2022/03/29 12:18:56;;;;;;;26.77;14.00;;;12.60;72.50;;;;;;4993118;28;20427;-69
2022/03/29 12:21:23;;;;;;;10.63;7.40;;;12.30;72.20;;;;;;4997033;28;20416;-68
2022/03/29 12:23:59;;;;;;;23.20;11.87;;;12.60;72.30;;;;;;4997023;28;20259;-68
2022/03/29 12:26:25;;;;;;;7.23;4.57;;;12.60;71.70;;;;;;4996913;28;20538;-68
2022/03/29 12:28:50;;;;;;;5.80;3.23;;;12.70;74.40;;;;;;4997555;28;20490;-69
2022/03/29 12:31:18;;;;;;;5.90;1.73;;;12.70;72.20;;;;;;4996750;28;20416;-68
2022/03/29 12:33:44;;;;;;;61.40;28.93;;;12.60;70.90;;;;;;4996779;28;20215;-68
2022/03/29 12:36:12;;;;;;;9.60;7.33;;;12.80;79.30;;;;;;4996073;28;20432;-67
2022/03/29 12:39:08;;;;;;;3.60;3.30;;;12.80;71.00;;;;;;4996245;28;20973;-69
2022/03/29 12:41:48;;;;;;;2.43;1.53;;;12.80;71.80;;;;;;4987564;28;21001;-69
2022/03/29 12:44:28;;;;;;;2.90;1.23;;;12.20;69.30;;;;;;4994930;28;20423;-68
2022/03/29 12:46:54;;;;;;;2.37;1.93;;;12.40;70.80;;;;;;4996190;28;20427;-69
2022/03/29 12:49:20;;;;;;;5.20;2.37;;;12.20;70.50;;;;;;4995790;28;20466;-68
2022/03/29 12:51:52;;;;;;;3.27;1.43;;;12.20;70.00;;;;;;4996106;28;20200;-69
2022/03/29 12:54:18;;;;;;;4.40;3.00;;;12.50;71.20;;;;;;4996025;28;20408;-68
2022/03/29 12:56:45;;;;;;;2.80;2.23;;;12.50;70.10;;;;;;4995855;28;20428;-69
2022/03/29 12:59:40;;;;;;;1.63;1.07;;;12.40;70.40;;;;;;4995605;28;20188;-69
2022/03/29 13:02:25;;;;;;;4.73;2.77;;;12.20;69.70;;;;;;4995898;28;20938;-69
2022/03/29 13:04:57;;;;;;;3.87;1.70;;;12.40;71.00;;;;;;4995722;28;20470;-69
2022/03/29 13:07:48;;;;;;;4.60;1.50;;;12.20;69.70;;;;;;4995487;28;20467;-69